createdAt,value
2019-03-13T00:00:55.489Z,96758.03
2019-03-13T00:02:09.098Z,96763.01
2019-03-13T00:03:11.772Z,96766.18
2019-03-13T00:04:14.982Z,96766.18
2019-03-13T00:05:17.743Z,96771.66
2019-03-13T00:06:20.507Z,96768.09
2019-03-13T00:07:23.574Z,96760.02
2019-03-13T00:08:26.391Z,96760.02
2019-03-13T00:09:30.425Z,96789.23
2019-03-13T00:10:33.580Z,96779.02
2019-03-13T00:11:36.280Z,96784.70
2019-03-13T00:12:39.446Z,96759.93
2019-03-13T00:13:43.700Z,96764.34
2019-03-13T00:14:46.580Z,96772.13
2019-03-13T00:15:50.061Z,96787.71
2019-03-13T00:16:52.792Z,96793.73
2019-03-13T00:17:55.533Z,96794.59
2019-03-13T00:18:58.343Z,96791.28
2019-03-13T00:20:01.326Z,96791.28
2019-03-13T00:21:04.634Z,96792.30
2019-03-13T00:22:07.486Z,96772.98
2019-03-13T00:23:10.755Z,96754.94
2019-03-13T00:24:13.959Z,96793.33
2019-03-13T00:25:16.652Z,96793.33
2019-03-13T00:26:19.754Z,96798.95
2019-03-13T00:27:22.436Z,96808.84
2019-03-13T00:28:27.105Z,96808.84
2019-03-13T00:29:29.993Z,96809.23
2019-03-13T00:30:32.830Z,96812.48
2019-03-13T00:31:37.580Z,96812.48
2019-03-13T00:32:40.563Z,96814.54
2019-03-13T00:33:43.413Z,96823.80
2019-03-13T00:34:46.198Z,96792.45
2019-03-13T00:35:49.229Z,96827.03
2019-03-13T00:36:52.323Z,96809.11
2019-03-13T00:37:55.157Z,96809.11
2019-03-13T00:38:58.181Z,96827.64
2019-03-13T00:40:00.993Z,96838.23
2019-03-13T00:41:03.674Z,96833.67
2019-03-13T00:42:10.047Z,96833.67
2019-03-13T00:43:12.712Z,96819.08
2019-03-13T00:44:15.917Z,96832.36
2019-03-13T00:45:19.047Z,96832.36
2019-03-13T00:46:21.940Z,96838.86
2019-03-13T00:47:24.609Z,96838.86
2019-03-13T00:48:27.420Z,96842.66
2019-03-13T00:49:30.239Z,96834.02
2019-03-13T00:50:33.044Z,96841.73
2019-03-13T00:51:37.115Z,96851.08
2019-03-13T00:52:40.078Z,96844.61
2019-03-13T00:53:42.909Z,96819.83
2019-03-13T00:54:45.599Z,96808.48
2019-03-13T00:55:48.409Z,96831.40
2019-03-13T00:56:51.334Z,96820.99
2019-03-13T00:57:54.396Z,96820.99
2019-03-13T00:58:57.254Z,96844.00
2019-03-13T01:00:00.172Z,96844.00
2019-03-13T01:01:34.112Z,96860.61
2019-03-13T01:02:39.389Z,96860.61
2019-03-13T01:04:07.167Z,96866.20
2019-03-13T01:05:26.606Z,96864.18
2019-03-13T01:06:32.940Z,96886.48
2019-03-13T01:07:35.758Z,96869.63
2019-03-13T01:08:39.079Z,96880.79
2019-03-13T01:09:42.309Z,96880.79
2019-03-13T01:10:45.789Z,96830.41
2019-03-13T01:11:48.631Z,96874.38
2019-03-13T01:12:51.471Z,96874.38
2019-03-13T01:13:54.356Z,96888.01
2019-03-13T01:14:57.254Z,96900.90
2019-03-13T01:15:59.949Z,96879.19
2019-03-13T01:17:02.823Z,96879.77
2019-03-13T01:18:05.650Z,96892.30
2019-03-13T01:19:08.485Z,96879.62
2019-03-13T01:20:11.368Z,96889.04
2019-03-13T01:21:14.208Z,96895.59
2019-03-13T01:22:16.924Z,96889.18
2019-03-13T01:23:20.056Z,96886.23
2019-03-13T01:24:22.877Z,96890.59
2019-03-13T01:25:25.589Z,96890.03
2019-03-13T01:26:29.057Z,96886.88
2019-03-13T01:27:32.213Z,96886.88
2019-03-13T01:28:35.063Z,96855.16
2019-03-13T01:29:38.164Z,96868.28
2019-03-13T01:30:55.315Z,96903.73
2019-03-13T01:32:22.697Z,96903.98
2019-03-13T01:33:25.540Z,96889.63
2019-03-13T01:34:31.366Z,96889.63
2019-03-13T01:35:41.177Z,96894.70
2019-03-13T01:36:43.882Z,96894.70
2019-03-13T01:37:46.634Z,96910.41
2019-03-13T01:38:49.463Z,96888.24
2019-03-13T01:39:52.276Z,96909.56
2019-03-13T01:40:55.140Z,96886.13
2019-03-13T01:41:58.118Z,96917.07
2019-03-13T01:43:00.934Z,96903.55
2019-03-13T01:44:03.769Z,96903.55
2019-03-13T01:45:06.668Z,96908.22
2019-03-13T01:46:09.412Z,96896.67
2019-03-13T01:47:12.544Z,96885.91
2019-03-13T01:48:15.506Z,96885.91
2019-03-13T01:49:18.249Z,96886.80
2019-03-13T01:50:21.181Z,96886.80
2019-03-13T01:51:24.014Z,96916.58
2019-03-13T01:52:26.836Z,96916.58
2019-03-13T01:53:29.553Z,96921.78
2019-03-13T01:54:32.561Z,96921.78
2019-03-13T01:55:37.403Z,96917.61
2019-03-13T01:56:40.069Z,96906.98
2019-03-13T01:57:42.940Z,96934.20
2019-03-13T01:58:45.632Z,96934.20
2019-03-13T01:59:48.298Z,96905.14
2019-03-13T02:00:51.421Z,96927.16
2019-03-13T02:01:54.732Z,96921.78
2019-03-13T02:02:57.434Z,96921.67
2019-03-13T02:04:00.282Z,96921.67
2019-03-13T02:05:03.010Z,96912.57
2019-03-13T02:06:06.279Z,96922.67
2019-03-13T02:07:10.237Z,96931.02
2019-03-13T02:08:12.901Z,96931.59
2019-03-13T02:09:15.577Z,96927.30
2019-03-13T02:10:24.714Z,96914.27
2019-03-13T02:11:27.846Z,96931.69
2019-03-13T02:12:32.668Z,96937.56
2019-03-13T02:13:35.601Z,96917.20
2019-03-13T02:14:38.260Z,96934.51
2019-03-13T02:15:41.370Z,96934.51
2019-03-13T02:16:45.160Z,96921.37
2019-03-13T02:17:50.569Z,96919.11
2019-03-13T02:18:56.723Z,96919.11
2019-03-13T02:19:59.684Z,96918.55
2019-03-13T02:21:03.715Z,96931.41
2019-03-13T02:22:06.372Z,96933.64
2019-03-13T02:23:09.350Z,96934.88
2019-03-13T02:24:11.998Z,96929.98
2019-03-13T02:25:14.673Z,96939.54
2019-03-13T02:26:19.245Z,96927.12
2019-03-13T02:27:21.917Z,96935.79
2019-03-13T02:28:24.777Z,96928.84
2019-03-13T02:29:27.428Z,96935.39
2019-03-13T02:30:31.505Z,96949.62
2019-03-13T02:31:36.837Z,96949.62
2019-03-13T02:32:41.699Z,96947.61
2019-03-13T02:33:46.279Z,96946.66
2019-03-13T02:34:52.042Z,96963.75
2019-03-13T02:35:55.773Z,96949.08
2019-03-13T02:36:58.439Z,96954.92
2019-03-13T02:38:01.372Z,96942.41
2019-03-13T02:39:05.815Z,96945.95
2019-03-13T02:40:15.841Z,96943.26
2019-03-13T02:41:18.534Z,96946.98
2019-03-13T02:42:27.236Z,96945.32
2019-03-13T02:43:33.140Z,96942.09
2019-03-13T02:44:35.838Z,96934.03
2019-03-13T02:45:39.105Z,96928.98
2019-03-13T02:46:41.752Z,96942.67
2019-03-13T02:47:45.497Z,96940.37
2019-03-13T02:48:48.141Z,96936.02
2019-03-13T02:49:50.818Z,96937.05
2019-03-13T02:50:55.714Z,96927.81
2019-03-13T02:52:00.387Z,96933.82
2019-03-13T02:53:03.466Z,96931.13
2019-03-13T02:54:11.163Z,96929.29
2019-03-13T02:55:19.008Z,96928.27
2019-03-13T02:56:21.990Z,96926.67
2019-03-13T02:57:29.096Z,96926.48
2019-03-13T02:58:33.560Z,96926.48
2019-03-13T02:59:38.156Z,96931.09
2019-03-13T03:01:02.746Z,96934.73
2019-03-13T03:02:28.119Z,96934.73
2019-03-13T03:03:36.281Z,96944.34
2019-03-13T03:04:39.253Z,96930.50
2019-03-13T03:05:44.144Z,96936.06
2019-03-13T03:06:49.440Z,96936.06
2019-03-13T03:07:52.112Z,96929.65
2019-03-13T03:08:54.801Z,96925.68
2019-03-13T03:09:57.475Z,96924.02
2019-03-13T03:11:00.467Z,96916.06
2019-03-13T03:12:03.260Z,96916.06
2019-03-13T03:13:05.976Z,96913.25
2019-03-13T03:14:09.147Z,96913.25
2019-03-13T03:15:11.876Z,96913.19
2019-03-13T03:16:14.521Z,96936.63
2019-03-13T03:17:17.946Z,96917.86
2019-03-13T03:18:20.612Z,96923.23
2019-03-13T03:19:23.731Z,96921.51
2019-03-13T03:20:26.821Z,96917.72
2019-03-13T03:21:29.521Z,96925.23
2019-03-13T03:22:32.181Z,96928.48
2019-03-13T03:23:35.187Z,96928.87
2019-03-13T03:24:38.980Z,96927.52
2019-03-13T03:25:41.724Z,96925.86
2019-03-13T03:26:44.400Z,96907.94
2019-03-13T03:27:47.105Z,96921.69
2019-03-13T03:28:49.835Z,96933.80
2019-03-13T03:29:52.771Z,96924.70
2019-03-13T03:30:55.513Z,96925.48
2019-03-13T03:31:58.742Z,96925.48
2019-03-13T03:33:01.903Z,96919.70
2019-03-13T03:34:04.589Z,96919.70
2019-03-13T03:35:07.291Z,96924.23
2019-03-13T03:36:13.135Z,96926.82
2019-03-13T03:37:15.851Z,96921.75
2019-03-13T03:38:18.525Z,96919.13
2019-03-13T03:39:21.223Z,96925.12
2019-03-13T03:40:23.995Z,96925.50
2019-03-13T03:41:26.644Z,96926.71
2019-03-13T03:42:29.646Z,96921.33
2019-03-13T03:43:40.031Z,96938.16
2019-03-13T03:44:37.104Z,96918.75
2019-03-13T03:45:39.889Z,96924.31
2019-03-13T03:46:42.682Z,96923.92
2019-03-13T03:47:45.333Z,96932.31
2019-03-13T03:48:48.676Z,96936.95
2019-03-13T03:49:51.760Z,96928.81
2019-03-13T03:50:54.979Z,96928.81
2019-03-13T03:51:57.633Z,96931.64
2019-03-13T03:53:00.398Z,96926.26
2019-03-13T03:54:03.311Z,96930.47
2019-03-13T03:55:06.307Z,96918.36
2019-03-13T03:56:10.052Z,96918.36
2019-03-13T03:57:12.676Z,96927.18
2019-03-13T03:58:15.394Z,96927.42
2019-03-13T03:59:18.190Z,96886.23
2019-03-13T04:00:21.041Z,96911.49
2019-03-13T04:01:24.065Z,96911.49
2019-03-13T04:02:27.227Z,96909.75
2019-03-13T04:03:29.897Z,96910.92
2019-03-13T04:04:32.585Z,96908.16
2019-03-13T04:05:35.244Z,96910.92
2019-03-13T04:06:37.908Z,96910.92
2019-03-13T04:07:40.903Z,96900.80
2019-03-13T04:08:46.641Z,96906.99
2019-03-13T04:09:49.902Z,96909.12
2019-03-13T04:10:53.167Z,96904.91
2019-03-13T04:11:56.183Z,96910.53
2019-03-13T04:12:59.361Z,96917.83
2019-03-13T04:14:02.545Z,96901.05
2019-03-13T04:15:05.581Z,96896.76
2019-03-13T04:16:08.247Z,96894.95
2019-03-13T04:17:12.340Z,96911.09
2019-03-13T04:18:15.820Z,96899.34
2019-03-13T04:19:18.952Z,96916.23
2019-03-13T04:20:21.971Z,96916.23
2019-03-13T04:21:25.074Z,96911.88
2019-03-13T04:22:27.761Z,96911.88
2019-03-13T04:23:30.392Z,96919.39
2019-03-13T04:24:33.065Z,96910.61
2019-03-13T04:25:35.923Z,96912.80
2019-03-13T04:26:38.921Z,96901.33
2019-03-13T04:27:44.205Z,96913.55
2019-03-13T04:28:46.899Z,96914.57
2019-03-13T04:29:49.611Z,96892.08
2019-03-13T04:30:52.691Z,96892.08
2019-03-13T04:31:55.370Z,96887.27
2019-03-13T04:32:59.817Z,96902.81
2019-03-13T04:34:05.081Z,96907.53
2019-03-13T04:35:09.373Z,96907.53
2019-03-13T04:36:12.108Z,96921.48
2019-03-13T04:37:14.757Z,96908.88
2019-03-13T04:38:17.897Z,96910.78
2019-03-13T04:39:20.859Z,96904.55
2019-03-13T04:40:23.497Z,96900.27
2019-03-13T04:41:26.242Z,96902.70
2019-03-13T04:42:28.986Z,96909.12
2019-03-13T04:43:31.798Z,96881.81
2019-03-13T04:44:34.457Z,96903.56
2019-03-13T04:45:37.399Z,96903.56
2019-03-13T04:46:40.420Z,96907.23
2019-03-13T04:47:43.067Z,96913.47
2019-03-13T04:48:46.277Z,96904.30
2019-03-13T04:49:48.938Z,96913.19
2019-03-13T04:50:51.608Z,96913.19
2019-03-13T04:51:54.505Z,96908.91
2019-03-13T04:52:57.148Z,96908.91
2019-03-13T04:53:59.858Z,96917.44
2019-03-13T04:55:02.503Z,96926.23
2019-03-13T04:56:05.156Z,96911.84
2019-03-13T04:57:07.780Z,96911.84
2019-03-13T04:58:11.153Z,96921.27
2019-03-13T04:59:13.853Z,96939.80
2019-03-13T05:00:16.528Z,96917.27
2019-03-13T05:01:19.263Z,96923.81
2019-03-13T05:02:21.926Z,96914.47
2019-03-13T05:03:24.576Z,96920.70
2019-03-13T05:04:29.829Z,96912.09
2019-03-13T05:05:32.487Z,96922.79
2019-03-13T05:06:35.147Z,96919.07
2019-03-13T05:07:38.220Z,96918.50
2019-03-13T05:08:45.345Z,96927.14
2019-03-13T05:09:45.685Z,96927.14
2019-03-13T05:10:48.679Z,96913.37
2019-03-13T05:11:51.401Z,96913.37
2019-03-13T05:12:54.208Z,96939.90
2019-03-13T05:13:56.900Z,96919.39
2019-03-13T05:14:59.620Z,96933.98
2019-03-13T05:16:02.301Z,96929.20
2019-03-13T05:17:05.845Z,96924.56
2019-03-13T05:18:08.547Z,96923.99
2019-03-13T05:19:11.189Z,96926.93
2019-03-13T05:20:16.659Z,96926.30
2019-03-13T05:21:22.493Z,96917.02
2019-03-13T05:22:25.166Z,96917.02
2019-03-13T05:23:27.927Z,96930.97
2019-03-13T05:24:31.469Z,96934.62
2019-03-13T05:25:34.293Z,96934.62
2019-03-13T05:26:37.366Z,96931.29
2019-03-13T05:27:40.016Z,96931.29
2019-03-13T05:28:43.428Z,96927.39
2019-03-13T05:29:46.082Z,96927.39
2019-03-13T05:30:53.134Z,96913.40
2019-03-13T05:31:55.994Z,96890.90
2019-03-13T05:32:58.629Z,96926.89
2019-03-13T05:34:04.025Z,96909.22
2019-03-13T05:35:06.949Z,96919.06
2019-03-13T05:36:10.130Z,96915.02
2019-03-13T05:37:12.791Z,96914.35
2019-03-13T05:38:15.449Z,96930.83
2019-03-13T05:39:18.201Z,96925.38
2019-03-13T05:40:21.284Z,96910.17
2019-03-13T05:41:24.463Z,96923.53
2019-03-13T05:42:27.190Z,96912.44
2019-03-13T05:43:29.855Z,96922.58
2019-03-13T05:44:32.546Z,96919.25
2019-03-13T05:45:35.191Z,96923.36
2019-03-13T05:46:37.908Z,96925.52
2019-03-13T05:47:41.065Z,96930.58
2019-03-13T05:48:44.081Z,96921.72
2019-03-13T05:49:47.198Z,96921.72
2019-03-13T05:50:50.269Z,96925.02
2019-03-13T05:51:55.524Z,96929.30
2019-03-13T05:52:58.251Z,96917.51
2019-03-13T05:54:02.880Z,96926.30
2019-03-13T05:55:05.506Z,96932.70
2019-03-13T05:56:08.850Z,96919.88
2019-03-13T05:57:11.505Z,96917.12
2019-03-13T05:58:14.228Z,96921.33
2019-03-13T05:59:16.884Z,96922.26
2019-03-13T06:00:21.409Z,96922.26
2019-03-13T06:01:29.930Z,96920.20
2019-03-13T06:02:34.890Z,96918.86
2019-03-13T06:03:39.901Z,96923.92
2019-03-13T06:04:42.985Z,96916.73
2019-03-13T06:05:45.798Z,96922.22
2019-03-13T06:06:48.494Z,96919.13
2019-03-13T06:07:51.154Z,96922.28
2019-03-13T06:08:54.260Z,96913.28
2019-03-13T06:10:00.045Z,96913.28
2019-03-13T06:11:02.725Z,96916.37
2019-03-13T06:12:05.741Z,96908.75
2019-03-13T06:13:08.495Z,96924.13
2019-03-13T06:14:11.240Z,96920.94
2019-03-13T06:15:16.291Z,96938.62
2019-03-13T06:16:21.549Z,96942.73
2019-03-13T06:17:24.204Z,96942.73
2019-03-13T06:18:27.796Z,96924.44
2019-03-13T06:19:32.075Z,96928.55
2019-03-13T06:20:38.266Z,96913.75
2019-03-13T06:21:41.042Z,96921.89
2019-03-13T06:22:43.768Z,96921.97
2019-03-13T06:23:48.110Z,96936.17
2019-03-13T06:24:52.561Z,96926.50
2019-03-13T06:25:55.279Z,96923.02
2019-03-13T06:27:01.395Z,96923.56
2019-03-13T06:28:03.533Z,96923.31
2019-03-13T06:29:06.391Z,96925.94
2019-03-13T06:44:00.663Z,96930.78
2019-03-13T06:45:03.542Z,96930.78
2019-03-13T06:46:06.315Z,96928.09
2019-03-13T06:47:08.955Z,96932.59
2019-03-13T06:48:11.734Z,96940.99
2019-03-13T06:49:18.806Z,96933.23
2019-03-13T06:50:21.452Z,96933.23
2019-03-13T06:51:24.126Z,96951.52
2019-03-13T06:52:26.839Z,96939.97
2019-03-13T06:53:29.591Z,96933.80
2019-03-13T06:54:32.390Z,96938.05
2019-03-13T06:55:35.383Z,96938.05
2019-03-13T06:56:38.091Z,96942.16
2019-03-13T06:57:44.894Z,96942.16
2019-03-13T06:58:56.949Z,96946.63
2019-03-13T07:00:17.336Z,96941.23
2019-03-13T07:01:41.846Z,96941.23
2019-03-13T07:02:52.763Z,96943.61
2019-03-13T07:04:06.184Z,96943.37
2019-03-13T07:05:22.930Z,96947.97
2019-03-13T07:06:43.421Z,96946.31
2019-03-13T07:08:13.308Z,96947.66
2019-03-13T07:09:27.377Z,96944.11
2019-03-13T07:10:36.854Z,96954.88
2019-03-13T07:12:16.568Z,96950.84
2019-03-13T07:13:28.610Z,96942.52
2019-03-13T07:14:48.506Z,96944.64
2019-03-13T07:16:00.187Z,96944.64
2019-03-13T07:17:20.649Z,96951.23
2019-03-13T07:18:40.512Z,96948.22
2019-03-13T07:20:07.814Z,96961.12
2019-03-13T07:21:41.527Z,96961.12
2019-03-13T07:23:12.582Z,96951.23
2019-03-13T07:24:31.251Z,96949.88
2019-03-13T07:25:55.509Z,96950.73
2019-03-13T07:27:17.564Z,96951.77
2019-03-13T07:28:30.194Z,96939.50
2019-03-13T07:29:43.157Z,96940.06
2019-03-13T07:30:54.034Z,96934.36
2019-03-13T07:32:18.376Z,96952.36
2019-03-13T07:33:38.725Z,96940.77
2019-03-13T07:35:05.960Z,96930.08
2019-03-13T07:36:26.167Z,96962.15
2019-03-13T07:37:46.180Z,96940.06
2019-03-13T07:39:14.312Z,96935.44
2019-03-13T07:40:25.206Z,96933.41
2019-03-13T07:41:35.668Z,96967.31
2019-03-13T07:43:15.501Z,96967.53
2019-03-13T07:44:40.307Z,96962.56
2019-03-13T07:46:04.992Z,96935.56
2019-03-13T07:47:32.786Z,96935.56
2019-03-13T07:49:01.927Z,96957.03
2019-03-13T07:50:20.366Z,96946.58
2019-03-13T07:51:35.405Z,96945.88
2019-03-13T07:53:00.588Z,96945.88
2019-03-13T07:54:34.273Z,96938.00
2019-03-13T07:56:11.174Z,96940.09
2019-03-13T07:57:31.233Z,96943.25
2019-03-13T07:58:44.101Z,96940.27
2019-03-13T07:59:54.469Z,96937.57
2019-03-13T08:01:03.159Z,96937.57
2019-03-13T08:02:27.458Z,96934.16
2019-03-13T08:03:49.401Z,96942.73
2019-03-13T08:05:14.300Z,96935.92
2019-03-13T08:06:51.130Z,96932.34
2019-03-13T08:08:27.599Z,96929.89
2019-03-13T08:09:42.469Z,96929.89
2019-03-13T08:11:13.387Z,96939.89
2019-03-13T08:12:53.081Z,96945.73
2019-03-13T08:14:12.787Z,96927.52
2019-03-13T08:15:34.161Z,96925.98
2019-03-13T08:17:04.371Z,96942.71
2019-03-13T08:18:34.002Z,96942.71
2019-03-13T08:19:51.376Z,96937.08
2019-03-13T08:21:11.629Z,96948.25
2019-03-13T08:22:33.861Z,96948.25
2019-03-13T08:24:01.649Z,96935.73
2019-03-13T08:25:21.898Z,96935.73
2019-03-13T08:26:50.193Z,96936.36
2019-03-13T08:28:10.489Z,96942.13
2019-03-13T08:29:30.383Z,96957.25
2019-03-13T08:30:52.347Z,96957.25
2019-03-13T08:32:20.831Z,96928.87
2019-03-13T08:33:42.419Z,96928.87
2019-03-13T08:35:00.291Z,96895.11
2019-03-13T08:36:40.651Z,96916.66
2019-03-13T08:38:03.669Z,96916.66
2019-03-13T08:39:40.099Z,96904.19
2019-03-13T08:41:07.758Z,96946.59
2019-03-13T08:42:29.279Z,96943.23
2019-03-13T08:43:54.026Z,96943.23
2019-03-13T08:45:09.714Z,96929.34
2019-03-13T08:46:35.466Z,96928.49
2019-03-13T08:48:00.323Z,96926.86
2019-03-13T08:49:31.387Z,96923.42
2019-03-13T08:50:58.974Z,96923.42
2019-03-13T08:52:26.831Z,96910.81
2019-03-13T08:53:57.364Z,96915.03
2019-03-13T08:55:23.179Z,96918.68
2019-03-13T08:56:38.850Z,96889.95
2019-03-13T08:57:56.565Z,96900.11
2019-03-13T08:59:11.571Z,96910.24
2019-03-13T09:00:38.988Z,96910.24
2019-03-13T09:02:00.833Z,96880.20
2019-03-13T09:03:15.705Z,96901.20
2019-03-13T09:04:43.312Z,96901.20
2019-03-13T09:06:11.071Z,96884.52
2019-03-13T09:07:26.005Z,96884.52
2019-03-13T09:08:51.973Z,96882.02
2019-03-13T09:10:12.192Z,96905.08
2019-03-13T09:11:32.270Z,96905.08
2019-03-13T09:13:02.014Z,96894.23
2019-03-13T09:14:18.155Z,96891.09
2019-03-13T09:15:57.690Z,96891.09
2019-03-13T09:17:13.092Z,96862.28
2019-03-13T09:18:25.457Z,96871.47
2019-03-13T09:19:50.163Z,96897.92
2019-03-13T09:21:14.936Z,96897.92
2019-03-13T09:22:34.704Z,96850.97
2019-03-13T09:24:14.558Z,96850.97
2019-03-13T09:25:35.634Z,96867.61
2019-03-13T09:27:02.933Z,96870.36
2019-03-13T09:28:17.292Z,96879.80
2019-03-13T09:29:39.374Z,96863.48
2019-03-13T09:31:03.124Z,96885.97
2019-03-13T09:32:36.638Z,96885.97
2019-03-13T09:33:56.082Z,96868.78
2019-03-13T09:35:11.199Z,96882.94
2019-03-13T09:36:25.056Z,96879.84
2019-03-13T09:37:38.353Z,96882.75
2019-03-13T09:39:11.858Z,96836.23
2019-03-13T09:40:33.381Z,96880.81
2019-03-13T09:41:45.757Z,96880.81
2019-03-13T09:43:07.376Z,96849.73
2019-03-13T09:44:42.219Z,96852.84
2019-03-13T09:46:04.098Z,96868.03
2019-03-13T09:47:15.421Z,96868.03
2019-03-13T09:48:36.429Z,96849.03
2019-03-13T09:49:56.416Z,96849.03
2019-03-13T09:51:24.227Z,96879.12
2019-03-13T09:52:44.334Z,96869.61
2019-03-13T09:54:04.867Z,96869.61
2019-03-13T09:55:26.483Z,96820.89
2019-03-13T09:56:48.412Z,96820.89
2019-03-13T09:58:17.281Z,96866.98
2019-03-13T09:59:42.706Z,96847.78
2019-03-13T10:00:46.718Z,96832.16
2019-03-13T10:02:09.831Z,96871.05
2019-03-13T10:03:50.256Z,96843.52
2019-03-13T10:05:01.565Z,96831.26
2019-03-13T10:06:23.614Z,96873.08
2019-03-13T10:07:47.393Z,96873.08
2019-03-13T10:09:07.020Z,96852.81
2019-03-13T10:10:41.100Z,96852.81
2019-03-13T10:11:57.752Z,96831.16
2019-03-13T10:13:18.913Z,96850.55
2019-03-13T10:14:30.744Z,96850.55
2019-03-13T10:15:39.871Z,96857.11
2019-03-13T10:17:10.461Z,96814.25
2019-03-13T10:18:24.647Z,96853.37
2019-03-13T10:19:45.159Z,96890.20
2019-03-13T10:21:12.557Z,96873.26
2019-03-13T10:22:27.449Z,96845.20
2019-03-13T10:23:49.006Z,96849.00
2019-03-13T10:25:10.490Z,96875.36
2019-03-13T10:26:44.164Z,96868.28
2019-03-13T10:28:07.757Z,96868.28
2019-03-13T10:29:21.610Z,96869.27
2019-03-13T10:30:53.074Z,96875.38
2019-03-13T10:32:05.045Z,96855.21
2019-03-13T10:33:33.204Z,96870.36
2019-03-13T10:34:53.575Z,96857.98
2019-03-13T10:36:20.301Z,96872.30
2019-03-13T10:37:46.427Z,96868.50
2019-03-13T10:39:08.674Z,96868.50
2019-03-13T10:40:29.349Z,96848.92
2019-03-13T10:41:59.235Z,96853.77
2019-03-13T10:43:17.717Z,96853.77
2019-03-13T10:44:47.154Z,96884.98
2019-03-13T10:46:13.876Z,96866.23
2019-03-13T10:47:34.217Z,96862.58
2019-03-13T10:48:59.354Z,96862.58
2019-03-13T10:50:17.694Z,96862.20
2019-03-13T10:51:31.692Z,96859.86
2019-03-13T10:52:53.609Z,96857.17
2019-03-13T10:54:05.896Z,96851.16
2019-03-13T10:55:45.771Z,96851.16
2019-03-13T10:57:16.813Z,96852.67
2019-03-13T10:58:44.588Z,96852.67
2019-03-13T11:00:01.132Z,96848.39
2019-03-13T11:01:12.430Z,96848.61
2019-03-13T11:02:29.862Z,96827.41
2019-03-13T11:03:43.963Z,96827.41
2019-03-13T11:05:05.497Z,96853.30
2019-03-13T11:06:27.818Z,96820.14
2019-03-13T11:07:44.071Z,96852.56
2019-03-13T11:09:14.482Z,96846.51
2019-03-13T11:10:36.146Z,96845.09
2019-03-13T11:11:55.766Z,96845.09
2019-03-13T11:13:09.056Z,96848.99
2019-03-13T11:14:49.317Z,96828.07
2019-03-13T11:16:09.903Z,96828.07
2019-03-13T11:17:31.764Z,96801.85
2019-03-13T11:18:59.205Z,96852.84
2019-03-13T11:20:29.978Z,96821.72
2019-03-13T11:21:46.696Z,96821.72
2019-03-13T11:23:17.438Z,96832.11
2019-03-13T11:24:44.208Z,96823.28
2019-03-13T11:26:12.689Z,96850.91
2019-03-13T11:27:29.210Z,96778.13
2019-03-13T11:28:38.165Z,96831.05
2019-03-13T11:29:50.263Z,96825.27
2019-03-13T11:43:13.133Z,96806.69
2019-03-13T11:44:40.073Z,96806.69
2019-03-13T11:46:05.199Z,96802.48
2019-03-13T11:47:45.574Z,96803.25
2019-03-13T11:49:05.704Z,96803.25
2019-03-13T11:50:27.250Z,96807.27
2019-03-13T11:51:54.307Z,96794.20
2019-03-13T11:53:22.413Z,96801.49
2019-03-13T11:54:44.208Z,96809.25
2019-03-13T11:56:08.931Z,96811.23
2019-03-13T11:57:39.787Z,96773.80
2019-03-13T11:59:12.513Z,96801.34
2019-03-13T12:00:35.000Z,96784.23
2019-03-13T12:02:05.788Z,96815.30
2019-03-13T12:03:29.110Z,96791.84
2019-03-13T12:04:42.140Z,96858.38
2019-03-13T12:06:04.359Z,96795.94
2019-03-13T12:07:28.798Z,96823.11
2019-03-13T12:08:51.213Z,96788.60
2019-03-13T12:10:11.943Z,96788.60
2019-03-13T12:11:21.942Z,96767.67
2019-03-13T12:12:46.305Z,96801.00
2019-03-13T12:14:22.678Z,96778.45
2019-03-13T12:15:35.673Z,96815.59
2019-03-13T12:17:02.822Z,96815.59
2019-03-13T12:18:26.287Z,96799.45
2019-03-13T12:19:56.168Z,96798.89
2019-03-13T12:22:44.361Z,96810.12
2019-03-13T12:24:08.451Z,96806.74
2019-03-13T12:25:36.967Z,96820.81
2019-03-13T12:27:04.405Z,96820.81
2019-03-13T12:28:17.400Z,96820.27
2019-03-13T12:29:37.773Z,96813.41
2019-03-13T12:31:05.105Z,96808.95
2019-03-13T12:32:15.189Z,96805.84
2019-03-13T12:33:37.350Z,96805.84
2019-03-13T12:35:01.577Z,96825.77
2019-03-13T12:36:26.068Z,96825.77
2019-03-13T12:37:39.245Z,96805.09
2019-03-13T12:38:54.040Z,96784.56
2019-03-13T12:40:27.913Z,96784.56
2019-03-13T12:41:57.254Z,96814.55
2019-03-13T12:43:27.985Z,96823.72
2019-03-13T12:44:52.595Z,96797.06
2019-03-13T12:46:29.154Z,96796.03
2019-03-13T12:48:15.893Z,96796.03
2019-03-13T12:49:30.571Z,96798.75
2019-03-13T12:50:56.193Z,96790.91
2019-03-13T12:52:17.787Z,96778.17
2019-03-13T12:53:42.378Z,96780.49
2019-03-13T12:55:07.280Z,96780.49
2019-03-13T12:56:29.873Z,96784.39
2019-03-13T12:57:56.192Z,96787.80
2019-03-13T12:59:21.023Z,96787.80
2019-03-13T13:00:57.438Z,96764.52
2019-03-13T13:02:18.340Z,96778.70
2019-03-13T13:03:35.483Z,96779.00
2019-03-13T13:04:44.536Z,96782.35
2019-03-13T13:06:21.233Z,96780.77
2019-03-13T13:07:36.368Z,96780.77
2019-03-13T13:09:00.883Z,96765.49
2019-03-13T13:10:22.414Z,96737.42
2019-03-13T13:11:49.613Z,96737.42
2019-03-13T13:13:15.870Z,96768.64
2019-03-13T13:14:31.217Z,96768.64
2019-03-13T13:15:51.559Z,96764.92
2019-03-13T13:17:21.852Z,96768.39
2019-03-13T13:18:53.546Z,96768.39
2019-03-13T13:19:56.362Z,96768.80
2019-03-13T13:21:01.831Z,96763.89
2019-03-13T13:22:04.660Z,96763.89
2019-03-13T13:23:07.336Z,96761.98
2019-03-13T13:24:10.148Z,96759.94
2019-03-13T13:25:16.307Z,96742.68
2019-03-13T13:26:23.669Z,96742.68
2019-03-13T13:27:26.467Z,96762.23
2019-03-13T13:28:29.155Z,96762.23
2019-03-13T13:29:31.913Z,96749.95
2019-03-13T13:30:34.582Z,96719.30
2019-03-13T13:31:37.586Z,96719.30
2019-03-13T13:32:40.445Z,96738.61
2019-03-13T13:33:45.984Z,96737.27
2019-03-13T13:34:51.882Z,96708.51
2019-03-13T13:35:54.547Z,96717.92
2019-03-13T13:36:57.288Z,96717.92
2019-03-13T13:38:02.038Z,96738.91
2019-03-13T13:39:05.266Z,96725.19
2019-03-13T13:40:08.054Z,96725.19
2019-03-13T13:41:13.557Z,96715.19
2019-03-13T13:42:16.261Z,96710.11
2019-03-13T13:43:20.161Z,96723.05
2019-03-13T13:44:22.895Z,96721.73
2019-03-13T13:45:25.566Z,96727.52
2019-03-13T13:46:28.290Z,96733.93
2019-03-13T13:47:35.971Z,96723.39
2019-03-13T13:48:44.548Z,96709.46
2019-03-13T13:49:59.186Z,96709.46
2019-03-13T13:50:53.137Z,96711.50
2019-03-13T13:51:56.318Z,96716.32
2019-03-13T13:52:59.509Z,96693.49
2019-03-13T13:54:03.322Z,96706.52
2019-03-13T13:55:08.445Z,96706.52
2019-03-13T13:56:11.595Z,96705.04
2019-03-13T13:57:14.297Z,96705.04
2019-03-13T13:58:17.017Z,96714.23
2019-03-13T13:59:24.404Z,96701.39
2019-03-13T14:00:27.494Z,96706.77
2019-03-13T14:01:35.407Z,96706.77
2019-03-13T14:02:38.602Z,96712.00
2019-03-13T14:03:44.420Z,96712.45
2019-03-13T14:04:47.328Z,96700.56
2019-03-13T14:05:50.274Z,96703.91
2019-03-13T14:06:53.718Z,96702.23
2019-03-13T14:07:58.825Z,96703.26
2019-03-13T14:09:04.078Z,96693.28
2019-03-13T14:10:08.058Z,96693.28
2019-03-13T14:11:13.991Z,96703.84
2019-03-13T14:12:19.898Z,96707.50
2019-03-13T14:13:21.155Z,96707.50
2019-03-13T14:14:25.527Z,96711.62
2019-03-13T14:15:31.163Z,96719.95
2019-03-13T14:16:36.953Z,96719.95
2019-03-13T14:17:39.924Z,96700.78
2019-03-13T14:18:51.735Z,96701.26
2019-03-13T14:19:54.650Z,96726.62
2019-03-13T14:20:57.502Z,96655.73
2019-03-13T14:22:00.147Z,96658.23